Pagina principale
METAR-TAF:

METAR-TAF

Aeroporti :

Aeroporto di Viterbo

Viterbo, Italia

latitudine: 42-26N, longitudine: 012-03E, altezza: 300 m

Osservazione

Il bollettino è stato emesso 7 ore e 54 minuti fa, alle 17:55 UTC
Vento 6 kt da nord-est
Temperature 10°C
Umidità 82%
Pressione 1024 hPa
Visibilità 10 km o più
Nubi sparse ad un'altezza di 2000 ft

METAR: LIRV 241755Z 05006KT 9999 SCT020 10/07 Q1024 RMK OVC BKN070 MON E SE CLD CIME NC VIS MIN 9999 WIND THR04 ///// KT BLU

Ora: 02:49 (01:49 UTC)

Previsione

Il bollettino è stato emesso 11 ore e 49 minuti fa, alle 14:00 UTC
Previsione valida dal 24 alle 15 UTC al 24 alle 24 UTC
Vento 8 kt da sud-est
Visibilità 10 km o più
Nubi sparse ad un'altezza di 2500 ft
Nuvoloso ad un'altezza di 5000 ft

TAF: LIRV 241400Z 2415/2424 13008KT 9999 SCT025 BKN050

Osservazioni e previsioni meteorologiche di più di 4000 aeroporti (messaggi METAR e TAF).

Le stazioni disponibili sono rappresentate dai dischi gialli e rossi sulla carta.

Puntare il mouse per vedere il nome della stazione.

Clicca sopra per visualizzare le osservazioni e previsioni meteorologiche.

Per cambiare la mappa : fare clic sui pulsanti verdi con una croce nera per ingrandire, il pulsante verde con un trattino per diminuire, o sulla freccia verde per le mappe adiacenti.


METAR-TAF: